Time;durP1;ratioP1;P1;durP2;ratioP2;P2;SDS_P1;SDS_P2;PMS_P1;PMS_P2;Temp;Humidity;BMP_temperature;BMP_pressure;BME280_temperature;BME280_humidity;BME280_pressure;Samples;Min_cycle;Max_cycle;Signal;HPM_P1;HPM_P2
2022/08/08 00:02:12;;;;;;;1.57;1.47;;;16.90;99.90;;;;;;5034886;28;20276;-86
2022/08/08 00:04:50;;;;;;;2.73;1.60;;;16.90;99.90;;;;;;5051895;28;20268;-86
2022/08/08 00:07:22;;;;;;;3.20;1.63;;;16.90;99.90;;;;;;5035276;28;20186;-86
2022/08/08 00:10:13;;;;;;;1.67;1.57;;;16.80;99.90;;;;;;5035998;28;20193;-86
2022/08/08 00:13:27;;;;;;;1.70;1.60;;;16.80;99.90;;;;;;5039058;28;20216;-86
2022/08/08 00:16:06;;;;;;;1.80;1.70;;;16.90;99.90;;;;;;5031268;28;20201;-86
2022/08/08 00:18:48;;;;;;;1.97;1.87;;;16.90;99.90;;;;;;5035997;28;20231;-87
2022/08/08 00:21:19;;;;;;;3.03;1.83;;;16.90;99.90;;;;;;5035052;28;20234;-87
2022/08/08 00:24:01;;;;;;;3.63;1.83;;;17.00;99.90;;;;;;5051570;28;20194;-87
2022/08/08 00:26:35;;;;;;;2.23;1.57;;;16.90;99.90;;;;;;5035154;28;20169;-87
2022/08/08 00:29:09;;;;;;;2.10;1.50;;;17.00;99.90;;;;;;5034926;28;20173;-87
2022/08/08 00:31:51;;;;;;;2.10;1.47;;;16.90;99.90;;;;;;5034635;28;20196;-87
2022/08/08 00:35:14;;;;;;;1.87;1.77;;;17.00;99.90;;;;;;5034873;28;20243;-87
2022/08/08 00:38:09;;;;;;;2.50;1.70;;;16.90;99.90;;;;;;5048488;28;20197;-87
2022/08/08 00:40:56;;;;;;;2.00;1.90;;;16.90;99.90;;;;;;5034495;28;20182;-87
2022/08/08 00:43:48;;;;;;;1.60;1.50;;;16.80;99.90;;;;;;5034743;28;20204;-87
2022/08/08 00:46:39;;;;;;;1.80;1.70;;;16.70;99.90;;;;;;5034885;28;20174;-87
2022/08/08 00:49:23;;;;;;;1.80;1.70;;;16.60;99.90;;;;;;5034839;28;20196;-87
2022/08/08 00:52:37;;;;;;;1.83;1.67;;;16.50;99.90;;;;;;5031543;28;20221;-87
2022/08/08 00:55:33;;;;;;;1.73;1.63;;;16.40;99.90;;;;;;4958763;28;20208;-87
2022/08/08 00:58:38;;;;;;;2.30;1.80;;;16.20;99.90;;;;;;5015315;28;20202;-87
2022/08/08 01:01:59;;;;;;;1.63;1.53;;;16.20;99.90;;;;;;5031067;28;20194;-87
2022/08/08 01:05:02;;;;;;;1.70;1.60;;;16.10;99.90;;;;;;4959637;28;20202;-87
2022/08/08 01:07:52;;;;;;;1.73;1.50;;;16.10;99.90;;;;;;5031375;28;20225;-87
2022/08/08 01:10:57;;;;;;;1.77;1.67;;;16.00;99.90;;;;;;5014380;28;20182;-86
2022/08/08 01:14:03;;;;;;;2.40;1.80;;;15.80;99.90;;;;;;5041671;28;20279;-87
2022/08/08 01:16:47;;;;;;;2.33;1.60;;;15.80;99.90;;;;;;5034211;28;20173;-87
2022/08/08 01:19:51;;;;;;;2.10;1.70;;;15.80;99.90;;;;;;5035452;28;20181;-86
2022/08/08 01:22:49;;;;;;;2.50;1.90;;;15.80;99.90;;;;;;5051283;28;20251;-87
2022/08/08 01:25:38;;;;;;;1.83;1.73;;;15.90;99.90;;;;;;5033895;28;20293;-87
2022/08/08 01:28:33;;;;;;;2.47;1.60;;;15.90;99.90;;;;;;5034992;28;20170;-87
2022/08/08 01:31:50;;;;;;;2.37;1.97;;;15.90;99.90;;;;;;5050856;28;20204;-87
2022/08/08 01:34:22;;;;;;;1.83;1.73;;;15.80;99.90;;;;;;5034093;28;20201;-86
2022/08/08 01:37:27;;;;;;;3.73;1.80;;;15.60;99.90;;;;;;5050732;28;20185;-87
2022/08/08 01:40:12;;;;;;;1.60;1.50;;;15.60;99.90;;;;;;5034731;28;20205;-87
2022/08/08 01:42:54;;;;;;;2.30;1.80;;;15.50;99.90;;;;;;5035439;28;20205;-86
2022/08/08 01:45:34;;;;;;;1.80;1.70;;;15.30;99.90;;;;;;5052268;28;20201;-86
2022/08/08 01:48:19;;;;;;;2.80;1.90;;;15.30;99.90;;;;;;5034230;28;20260;-86
2022/08/08 01:51:04;;;;;;;1.83;1.63;;;15.40;99.90;;;;;;5034558;28;20174;-86
2022/08/08 01:53:45;;;;;;;3.10;1.50;;;15.50;99.90;;;;;;5036246;28;20189;-87
2022/08/08 01:56:39;;;;;;;1.60;1.40;;;15.60;99.90;;;;;;5054594;28;20265;-87
2022/08/08 01:59:57;;;;;;;2.07;1.70;;;15.60;99.90;;;;;;5037888;28;20328;-86
2022/08/08 02:02:58;;;;;;;1.70;1.50;;;15.60;99.90;;;;;;5034846;28;20333;-86
2022/08/08 02:05:50;;;;;;;1.67;1.57;;;15.60;99.90;;;;;;5054514;28;20689;-87
2022/08/08 02:08:35;;;;;;;1.77;1.50;;;15.60;99.90;;;;;;5038188;28;20668;-86
2022/08/08 02:11:22;;;;;;;2.03;1.83;;;15.60;99.90;;;;;;5037088;28;20190;-87
2022/08/08 02:13:57;;;;;;;2.13;1.67;;;15.50;99.90;;;;;;5056119;28;20178;-86
2022/08/08 02:16:52;;;;;;;1.73;1.63;;;15.50;99.90;;;;;;5038826;28;20185;-87
2022/08/08 02:19:36;;;;;;;1.87;1.77;;;15.50;99.90;;;;;;5038718;28;20208;-87
2022/08/08 02:25:18;;;;;;;1.90;1.70;;;15.50;99.90;;;;;;5053732;28;20304;-86
2022/08/08 02:27:50;;;;;;;1.73;1.63;;;15.50;99.90;;;;;;5037556;28;20181;-87
2022/08/08 02:30:25;;;;;;;2.23;1.73;;;15.50;99.90;;;;;;5037898;28;20903;-86
2022/08/08 02:32:56;;;;;;;1.80;1.70;;;15.50;99.90;;;;;;5037511;28;20201;-86
2022/08/08 02:35:55;;;;;;;2.70;1.60;;;15.40;99.90;;;;;;5037367;28;20264;-86
2022/08/08 02:38:58;;;;;;;3.47;1.90;;;15.40;99.90;;;;;;5037887;28;20188;-86
2022/08/08 02:41:56;;;;;;;1.70;1.60;;;15.30;99.90;;;;;;5022173;28;20205;-86
2022/08/08 02:44:37;;;;;;;1.70;1.60;;;15.20;99.90;;;;;;5036890;28;20231;-86
2022/08/08 02:47:12;;;;;;;2.70;1.70;;;15.10;99.90;;;;;;5037043;28;20177;-86
2022/08/08 02:50:16;;;;;;;1.97;1.80;;;15.00;99.90;;;;;;5037492;28;20172;-86
2022/08/08 02:52:58;;;;;;;3.53;1.77;;;14.90;99.90;;;;;;5036921;28;20296;-86
2022/08/08 03:03:21;;;;;;;2.27;2.00;;;14.80;99.90;;;;;;5049767;28;20206;-87
2022/08/08 03:06:06;;;;;;;1.90;1.80;;;14.80;99.90;;;;;;5016296;28;20201;-86
2022/08/08 03:09:00;;;;;;;1.87;1.73;;;14.80;99.90;;;;;;5033292;28;20216;-86
2022/08/08 03:11:54;;;;;;;1.93;1.83;;;14.60;99.90;;;;;;5032814;28;20216;-86
2022/08/08 03:14:50;;;;;;;2.00;1.80;;;14.30;99.90;;;;;;5018057;28;20184;-86
2022/08/08 03:17:22;;;;;;;2.17;1.97;;;14.20;99.90;;;;;;5036115;28;20176;-86
2022/08/08 03:20:06;;;;;;;2.07;1.70;;;14.10;99.90;;;;;;5035850;28;20176;-86
2022/08/08 03:22:48;;;;;;;2.13;1.93;;;14.00;99.90;;;;;;5036681;28;20201;-86
2022/08/08 03:25:16;;;;;;;3.27;1.80;;;14.00;99.90;;;;;;5036005;28;20216;-86
2022/08/08 03:27:48;;;;;;;1.90;1.80;;;14.00;99.90;;;;;;5036314;28;20265;-86
2022/08/08 03:30:15;;;;;;;2.27;2.07;;;14.00;99.90;;;;;;5035186;28;20180;-86
2022/08/08 03:35:27;;;;;;;2.37;2.00;;;14.00;99.90;;;;;;5052131;28;20179;-86
2022/08/08 03:37:55;;;;;;;2.07;1.90;;;14.00;99.90;;;;;;5036138;28;20180;-86
2022/08/08 03:40:23;;;;;;;2.30;2.10;;;14.10;99.90;;;;;;5052766;28;20221;-86
2022/08/08 03:42:49;;;;;;;3.17;1.50;;;14.20;99.90;;;;;;5036821;28;20202;-86
2022/08/08 03:45:27;;;;;;;2.60;1.90;;;14.20;99.90;;;;;;5037942;28;20298;-86
2022/08/08 03:47:55;;;;;;;2.83;1.90;;;14.20;99.90;;;;;;5036016;28;20243;-86
2022/08/08 03:50:22;;;;;;;1.80;1.70;;;14.20;99.90;;;;;;5035874;28;20181;-86
2022/08/08 03:52:48;;;;;;;1.63;1.50;;;14.20;99.90;;;;;;5035578;28;20211;-86
2022/08/08 03:55:16;;;;;;;2.93;1.80;;;14.10;99.90;;;;;;5035933;28;20180;-86
2022/08/08 03:57:51;;;;;;;2.70;2.00;;;14.10;99.90;;;;;;5053595;28;20230;-86
2022/08/08 04:00:22;;;;;;;2.10;2.00;;;14.00;99.90;;;;;;5035200;28;20189;-86
2022/08/08 04:03:06;;;;;;;2.07;1.97;;;14.00;99.90;;;;;;5036515;28;20178;-86
2022/08/08 04:05:35;;;;;;;3.33;2.00;;;13.90;99.90;;;;;;5035837;28;20228;-86
2022/08/08 04:08:07;;;;;;;2.83;2.03;;;13.80;99.90;;;;;;5036116;28;20174;-86
2022/08/08 04:10:35;;;;;;;2.23;1.77;;;13.70;99.90;;;;;;5035697;28;20178;-86
2022/08/08 04:13:03;;;;;;;1.80;1.70;;;13.70;99.90;;;;;;5037720;28;20176;-86
2022/08/08 04:15:30;;;;;;;1.80;1.70;;;13.80;99.90;;;;;;5053338;28;20181;-86
2022/08/08 04:17:57;;;;;;;1.90;1.80;;;13.80;99.90;;;;;;5036015;28;20184;-86
2022/08/08 04:20:23;;;;;;;4.03;1.90;;;13.70;99.90;;;;;;5035124;28;20179;-86
2022/08/08 04:22:49;;;;;;;2.60;2.40;;;13.70;99.90;;;;;;5035308;28;20255;-86
2022/08/08 04:25:14;;;;;;;2.30;2.10;;;13.70;99.90;;;;;;5035403;28;20297;-86
2022/08/08 04:27:41;;;;;;;1.90;1.80;;;13.70;99.90;;;;;;5035505;28;20413;-86
2022/08/08 04:30:07;;;;;;;2.47;2.00;;;13.80;99.90;;;;;;5035314;28;20203;-86
2022/08/08 04:32:34;;;;;;;2.27;2.10;;;13.80;99.90;;;;;;5035398;28;20251;-86
2022/08/08 04:35:03;;;;;;;3.00;2.10;;;13.80;99.90;;;;;;5035436;28;20180;-86
2022/08/08 04:37:34;;;;;;;1.93;1.73;;;13.90;99.90;;;;;;5035960;28;20171;-86
2022/08/08 04:40:08;;;;;;;3.00;2.13;;;13.90;99.90;;;;;;5051605;28;20174;-85
2022/08/08 04:42:41;;;;;;;3.07;1.80;;;13.90;99.90;;;;;;5036297;28;20198;-86
2022/08/08 04:45:08;;;;;;;3.93;1.80;;;13.90;99.90;;;;;;5034917;28;20383;-85
2022/08/08 04:47:35;;;;;;;3.70;2.03;;;13.80;99.90;;;;;;5019221;28;20207;-86
2022/08/08 04:50:01;;;;;;;4.27;2.30;;;13.90;99.90;;;;;;5051306;28;20185;-86
2022/08/08 04:52:32;;;;;;;1.90;1.80;;;13.90;99.90;;;;;;5035612;28;20231;-86
2022/08/08 04:54:58;;;;;;;1.90;1.70;;;13.80;99.90;;;;;;5033737;28;20188;-86
2022/08/08 04:57:24;;;;;;;2.30;2.10;;;13.70;99.90;;;;;;5015065;28;20192;-86
2022/08/08 04:59:51;;;;;;;2.30;1.93;;;13.70;99.90;;;;;;5027531;28;20208;-87
2022/08/08 05:03:23;;;;;;;2.30;1.83;;;13.60;99.90;;;;;;5030250;28;20276;-87
2022/08/08 05:09:32;;;;;;;3.60;1.97;;;13.50;99.90;;;;;;5024426;28;20545;-87
2022/08/08 05:11:58;;;;;;;4.10;2.10;;;13.50;99.90;;;;;;5027236;28;20217;-86
2022/08/08 05:14:30;;;;;;;3.53;2.20;;;13.50;99.90;;;;;;5039691;28;20174;-87
2022/08/08 05:17:03;;;;;;;2.63;2.10;;;13.60;99.90;;;;;;5041845;28;20194;-87
2022/08/08 05:19:34;;;;;;;3.60;2.30;;;13.70;99.90;;;;;;5050707;28;20182;-86
2022/08/08 05:22:00;;;;;;;2.57;1.97;;;13.80;99.90;;;;;;5064134;28;20294;-86
2022/08/08 05:24:31;;;;;;;2.30;2.10;;;14.00;99.90;;;;;;5034759;28;20206;-86
2022/08/08 05:26:57;;;;;;;2.43;2.00;;;14.10;99.90;;;;;;5034752;28;20189;-86
2022/08/08 05:29:24;;;;;;;3.67;1.80;;;14.10;99.90;;;;;;5054900;28;20178;-86
2022/08/08 05:31:50;;;;;;;2.80;1.90;;;14.30;99.90;;;;;;5039041;28;20205;-86
2022/08/08 05:34:33;;;;;;;4.23;2.10;;;14.40;99.90;;;;;;5038760;28;20184;-86
2022/08/08 05:37:03;;;;;;;2.23;2.03;;;14.60;99.90;;;;;;5038524;28;20187;-86
2022/08/08 05:39:29;;;;;;;2.77;2.10;;;14.80;99.90;;;;;;5055349;28;20180;-86
2022/08/08 05:41:57;;;;;;;2.07;1.97;;;15.00;99.90;;;;;;5038370;28;20201;-87
2022/08/08 05:44:29;;;;;;;1.90;1.70;;;15.20;99.90;;;;;;5038482;28;20196;-86
2022/08/08 05:46:57;;;;;;;2.47;1.80;;;15.30;99.90;;;;;;5054952;28;20175;-86
2022/08/08 05:49:25;;;;;;;2.73;2.00;;;15.40;99.90;;;;;;5039937;28;20261;-86
2022/08/08 05:51:51;;;;;;;2.37;1.83;;;15.60;99.90;;;;;;5038536;28;20197;-86
2022/08/08 05:54:41;;;;;;;1.97;1.77;;;15.70;99.90;;;;;;5039066;28;20223;-85
2022/08/08 05:57:14;;;;;;;2.07;1.87;;;15.90;99.90;;;;;;5052783;28;20163;-85
2022/08/08 05:59:48;;;;;;;2.03;1.93;;;15.90;99.90;;;;;;5047149;28;20185;-85
2022/08/08 06:06:05;;;;;;;2.33;2.10;;;16.10;99.90;;;;;;5044540;28;20202;-85
2022/08/08 06:08:43;;;;;;;2.50;1.87;;;16.40;99.90;;;;;;4997856;28;20193;-85
2022/08/08 06:11:10;;;;;;;2.17;1.87;;;16.60;99.90;;;;;;5032509;28;20284;-87
2022/08/08 06:13:37;;;;;;;3.37;2.13;;;16.80;99.90;;;;;;5038494;28;20174;-89
2022/08/08 06:16:05;;;;;;;2.23;2.00;;;16.90;99.90;;;;;;5038595;28;20177;-88
2022/08/08 06:18:51;;;;;;;2.27;2.07;;;17.10;99.90;;;;;;5041405;28;20170;-89
2022/08/08 06:21:20;;;;;;;2.10;1.90;;;17.20;99.90;;;;;;5038515;28;20281;-89
2022/08/08 06:23:46;;;;;;;3.50;1.67;;;17.30;99.90;;;;;;5037477;28;20209;-86
2022/08/08 06:26:14;;;;;;;3.00;2.17;;;17.40;99.90;;;;;;5055129;28;20185;-88
2022/08/08 06:28:53;;;;;;;2.53;1.90;;;17.50;99.90;;;;;;5037984;28;20182;-88
2022/08/08 06:31:21;;;;;;;3.03;2.07;;;17.60;99.90;;;;;;5037738;28;20202;-90
2022/08/08 06:34:23;;;;;;;1.97;1.87;;;17.80;99.90;;;;;;5039679;28;20185;-89
2022/08/08 06:36:50;;;;;;;2.37;1.83;;;17.80;99.90;;;;;;5037234;28;20185;-90
2022/08/08 06:39:19;;;;;;;3.40;2.13;;;18.00;99.90;;;;;;5037102;28;20181;-89
2022/08/08 06:41:58;;;;;;;2.70;1.97;;;18.10;99.90;;;;;;5040688;28;20205;-87
2022/08/08 06:44:28;;;;;;;2.30;1.80;;;18.10;99.90;;;;;;5038054;28;20198;-87
2022/08/08 06:46:58;;;;;;;2.20;1.83;;;18.20;99.90;;;;;;5037894;28;20178;-87
2022/08/08 06:49:28;;;;;;;3.23;2.20;;;18.30;99.90;;;;;;5037573;28;20173;-87
2022/08/08 06:51:54;;;;;;;2.13;1.87;;;18.40;99.90;;;;;;5036683;28;20284;-87
2022/08/08 06:54:23;;;;;;;2.00;1.90;;;18.50;99.90;;;;;;5036974;28;20185;-87
2022/08/08 06:56:50;;;;;;;3.25;2.00;;;18.60;99.90;;;;;;5036884;28;20185;-87
2022/08/08 06:59:17;;;;;;;3.08;2.10;;;18.70;99.90;;;;;;5037258;28;20232;-87
2022/08/08 07:01:59;;;;;;;2.17;1.92;;;18.80;99.90;;;;;;5036768;28;20193;-87
2022/08/08 07:04:44;;;;;;;3.55;1.80;;;18.90;99.90;;;;;;5036773;28;20196;-88
2022/08/08 07:07:12;;;;;;;2.20;2.00;;;19.00;99.90;;;;;;5036827;28;20177;-87
2022/08/08 07:10:01;;;;;;;2.35;1.83;;;19.00;99.90;;;;;;5038020;28;20646;-87
2022/08/08 07:13:02;;;;;;;1.63;1.52;;;19.10;99.90;;;;;;5037206;28;20198;-87
2022/08/08 07:15:50;;;;;;;4.63;1.98;;;19.30;99.90;;;;;;5037313;28;20173;-87
2022/08/08 07:18:33;;;;;;;2.63;2.22;;;19.50;99.90;;;;;;5036800;28;20169;-87
2022/08/08 07:21:05;;;;;;;2.13;1.92;;;19.60;99.90;;;;;;5036343;28;20194;-87
2022/08/08 07:23:43;;;;;;;2.05;1.85;;;19.80;99.90;;;;;;5036583;28;20219;-87
2022/08/08 07:26:09;;;;;;;2.22;1.80;;;20.00;99.90;;;;;;5036395;28;20182;-87
2022/08/08 07:28:36;;;;;;;1.85;1.60;;;20.00;99.90;;;;;;5036275;28;20176;-87
2022/08/08 07:31:05;;;;;;;2.67;1.90;;;20.10;99.90;;;;;;5036257;28;20205;-87
2022/08/08 07:33:31;;;;;;;1.85;1.70;;;20.30;99.90;;;;;;5036213;28;20188;-87
2022/08/08 07:36:00;;;;;;;3.35;1.70;;;20.30;99.90;;;;;;5035973;28;20182;-87
2022/08/08 07:38:27;;;;;;;1.88;1.70;;;20.40;99.90;;;;;;5036523;28;20177;-87
2022/08/08 07:41:00;;;;;;;1.90;1.80;;;20.50;99.90;;;;;;5036630;28;20224;-87
2022/08/08 07:43:32;;;;;;;1.83;1.67;;;20.60;99.90;;;;;;5036664;28;20174;-90
2022/08/08 07:45:59;;;;;;;2.75;1.80;;;20.70;99.90;;;;;;5036420;28;20177;-78
2022/08/08 07:48:26;;;;;;;1.80;1.70;;;20.90;99.90;;;;;;5053897;28;20237;-87
2022/08/08 07:50:57;;;;;;;2.38;1.90;;;21.10;99.90;;;;;;5040160;28;20288;-87
2022/08/08 07:53:43;;;;;;;1.92;1.83;;;21.30;99.90;;;;;;5036682;28;20206;-87
2022/08/08 07:56:15;;;;;;;3.83;2.15;;;21.40;99.90;;;;;;5037159;28;20265;-87
2022/08/08 07:59:11;;;;;;;2.30;2.10;;;21.50;99.90;;;;;;5052820;28;20165;-87
2022/08/08 08:01:39;;;;;;;4.70;2.10;;;21.60;99.90;;;;;;5035927;28;20243;-87
2022/08/08 08:04:13;;;;;;;3.67;2.30;;;21.70;99.90;;;;;;5052720;28;20197;-87
2022/08/08 08:06:42;;;;;;;2.90;1.83;;;21.70;99.90;;;;;;5052627;28;20199;-87
2022/08/08 08:09:18;;;;;;;2.10;1.80;;;21.80;99.90;;;;;;5035796;28;20174;-87
2022/08/08 08:11:49;;;;;;;2.72;2.22;;;22.00;99.90;;;;;;5036248;28;20284;-87
2022/08/08 08:14:27;;;;;;;3.80;1.90;;;22.00;99.90;;;;;;5036018;28;20197;-87
2022/08/08 08:16:55;;;;;;;3.08;2.08;;;22.20;99.90;;;;;;5036449;28;20181;-87
2022/08/08 08:19:29;;;;;;;2.13;1.80;;;22.30;99.90;;;;;;5035770;28;20178;-87
2022/08/08 08:21:56;;;;;;;2.53;1.80;;;22.50;99.90;;;;;;5032882;28;20226;-87
2022/08/08 08:24:30;;;;;;;2.17;1.95;;;22.80;99.90;;;;;;5036713;28;20244;-87
2022/08/08 08:26:58;;;;;;;2.65;2.13;;;22.90;99.90;;;;;;5035974;28;20178;-87
2022/08/08 08:29:26;;;;;;;2.33;2.05;;;23.10;99.90;;;;;;5035885;28;20170;-87
2022/08/08 08:31:52;;;;;;;4.10;2.10;;;23.20;99.90;;;;;;5035298;28;20247;-87
2022/08/08 08:34:19;;;;;;;2.17;1.98;;;23.30;99.90;;;;;;5035409;28;20178;-87
2022/08/08 08:36:45;;;;;;;2.10;1.85;;;23.60;99.90;;;;;;5035380;28;20205;-87
2022/08/08 08:39:12;;;;;;;2.80;2.17;;;23.80;99.90;;;;;;5039047;28;20173;-89
2022/08/08 08:41:44;;;;;;;2.97;1.80;;;23.90;99.50;;;;;;5032228;28;20206;-87
2022/08/08 08:44:14;;;;;;;2.92;2.10;;;24.20;99.80;;;;;;5051920;28;20574;-87
2022/08/08 08:46:48;;;;;;;3.30;2.30;;;24.50;99.20;;;;;;5051657;28;20316;-87
2022/08/08 08:49:18;;;;;;;2.30;2.10;;;24.60;99.70;;;;;;5051292;28;20182;-87
2022/08/08 08:52:23;;;;;;;3.00;2.10;;;24.70;99.20;;;;;;5048652;28;20197;-87
2022/08/08 08:54:55;;;;;;;2.65;2.20;;;25.10;98.80;;;;;;5031764;28;20158;-88
2022/08/08 08:57:22;;;;;;;2.63;2.15;;;25.40;98.10;;;;;;5030982;28;20191;-88
2022/08/08 08:59:53;;;;;;;2.05;1.95;;;25.50;98.00;;;;;;5030792;28;20181;-88
2022/08/08 09:02:23;;;;;;;2.67;1.88;;;25.80;97.40;;;;;;5034007;28;20198;-88
2022/08/08 09:04:58;;;;;;;2.55;2.03;;;26.00;96.70;;;;;;5035289;28;20217;-88
2022/08/08 09:07:29;;;;;;;2.15;1.95;;;26.10;96.10;;;;;;5035159;28;20174;-88
2022/08/08 09:10:03;;;;;;;2.28;2.05;;;26.20;96.10;;;;;;5034241;28;20262;-90
2022/08/08 09:13:01;;;;;;;3.10;2.00;;;26.40;95.40;;;;;;5036027;28;20193;-88
2022/08/08 09:15:27;;;;;;;4.25;1.80;;;26.40;94.10;;;;;;5035184;28;20236;-87
2022/08/08 09:17:54;;;;;;;1.60;1.50;;;26.50;94.30;;;;;;5034204;28;20192;-85
2022/08/08 09:20:24;;;;;;;1.98;1.85;;;26.70;94.30;;;;;;5033924;28;20189;-85
2022/08/08 09:22:52;;;;;;;2.88;2.00;;;26.80;94.60;;;;;;5034581;28;20214;-88
2022/08/08 09:25:18;;;;;;;2.38;1.88;;;26.80;94.50;;;;;;5051227;28;20197;-89
2022/08/08 09:27:45;;;;;;;1.95;1.63;;;27.00;93.40;;;;;;5050744;28;20260;-89
2022/08/08 09:30:13;;;;;;;1.90;1.80;;;27.20;92.90;;;;;;5034049;28;20405;-89
2022/08/08 09:32:41;;;;;;;1.92;1.33;;;27.40;91.80;;;;;;5033982;28;20300;-88
2022/08/08 09:35:13;;;;;;;1.98;1.88;;;27.40;91.60;;;;;;5034165;28;20202;-88
2022/08/08 09:37:43;;;;;;;1.88;1.73;;;27.50;91.70;;;;;;5034288;28;20174;-88
2022/08/08 09:40:12;;;;;;;2.17;1.60;;;27.70;91.80;;;;;;5033985;28;20651;-88
2022/08/08 09:42:42;;;;;;;1.73;1.63;;;27.70;90.60;;;;;;5034107;28;20198;-88
2022/08/08 09:45:19;;;;;;;1.75;1.65;;;27.70;90.40;;;;;;5034401;28;20178;-88
2022/08/08 09:47:47;;;;;;;5.13;1.75;;;27.90;90.60;;;;;;5034658;28;20223;-88
2022/08/08 09:50:19;;;;;;;1.63;1.50;;;28.00;90.70;;;;;;5041495;28;20189;-89
2022/08/08 09:52:50;;;;;;;1.80;1.70;;;28.00;90.50;;;;;;5044888;28;20292;-88
2022/08/08 09:55:18;;;;;;;2.83;1.80;;;27.90;88.70;;;;;;5034640;28;20214;-88
2022/08/08 09:58:02;;;;;;;2.67;2.00;;;28.10;89.80;;;;;;5034317;28;20204;-88
2022/08/08 10:00:32;;;;;;;1.95;1.73;;;28.20;90.00;;;;;;5033904;28;20185;-88
2022/08/08 10:03:02;;;;;;;1.90;1.80;;;28.40;89.40;;;;;;5034032;28;20265;-88
2022/08/08 10:05:36;;;;;;;3.33;1.70;;;28.30;88.50;;;;;;5034059;28;20236;-88
2022/08/08 10:08:04;;;;;;;1.95;1.60;;;28.30;89.80;;;;;;5034363;28;20178;-88
2022/08/08 10:10:38;;;;;;;3.25;1.50;;;28.40;88.10;;;;;;5034123;28;20178;-88
2022/08/08 10:13:19;;;;;;;1.92;1.45;;;28.50;88.20;;;;;;5034255;28;20181;-88
2022/08/08 10:15:48;;;;;;;2.20;1.90;;;28.60;86.60;;;;;;5038050;28;20307;-88
2022/08/08 10:18:34;;;;;;;1.95;1.85;;;28.70;89.00;;;;;;5054170;28;20173;-88
2022/08/08 10:21:08;;;;;;;2.75;1.60;;;28.80;87.20;;;;;;5054035;28;20217;-88
2022/08/08 10:23:42;;;;;;;2.67;1.80;;;28.90;85.90;;;;;;5037225;28;20247;-88
2022/08/08 10:26:21;;;;;;;1.88;1.60;;;29.10;85.80;;;;;;5037646;28;20182;-88
2022/08/08 10:29:06;;;;;;;1.77;1.60;;;29.10;86.20;;;;;;5037184;28;20181;-89
2022/08/08 10:34:22;;;;;;;2.50;1.60;;;29.20;84.10;;;;;;5054139;28;20233;-88
2022/08/08 10:36:49;;;;;;;3.80;1.90;;;29.30;83.90;;;;;;5037266;28;20189;-88
2022/08/08 10:39:24;;;;;;;1.55;1.45;;;29.20;83.90;;;;;;5037329;28;20178;-88
2022/08/08 10:42:04;;;;;;;2.83;1.83;;;29.30;84.30;;;;;;5053761;28;20272;-88
2022/08/08 10:44:40;;;;;;;2.13;1.60;;;29.30;84.10;;;;;;5037214;28;20269;-88
2022/08/08 10:47:13;;;;;;;2.45;1.80;;;29.40;84.70;;;;;;5037057;28;20186;-88
2022/08/08 10:49:51;;;;;;;1.80;1.70;;;29.50;86.00;;;;;;5053785;28;20182;-88
2022/08/08 10:52:29;;;;;;;1.92;1.70;;;29.60;84.20;;;;;;5053683;28;20208;-88
2022/08/08 10:54:57;;;;;;;2.20;2.00;;;29.60;85.20;;;;;;5037140;28;20197;-88
2022/08/08 10:57:24;;;;;;;3.25;1.75;;;29.80;84.70;;;;;;5036830;28;20589;-88
2022/08/08 10:59:58;;;;;;;2.35;2.00;;;29.90;84.70;;;;;;5036866;28;20186;-88
2022/08/08 11:02:31;;;;;;;3.05;1.80;;;29.90;86.00;;;;;;5036901;28;20280;-88
2022/08/08 11:04:58;;;;;;;1.90;1.70;;;30.00;85.40;;;;;;5036955;28;20182;-88
2022/08/08 11:07:50;;;;;;;3.90;2.08;;;30.00;84.90;;;;;;5036583;28;20626;-88
2022/08/08 11:10:18;;;;;;;3.50;1.77;;;30.30;83.80;;;;;;5036290;28;20175;-88
2022/08/08 11:12:58;;;;;;;3.08;1.90;;;30.20;83.50;;;;;;5036659;28;20252;-88
2022/08/08 11:15:29;;;;;;;6.07;2.17;;;30.30;82.70;;;;;;5036377;28;20197;-88
2022/08/08 11:17:55;;;;;;;2.47;1.80;;;30.30;82.70;;;;;;5036563;28;20240;-88
2022/08/08 11:20:23;;;;;;;2.60;1.90;;;30.40;81.80;;;;;;5036295;28;20174;-88
2022/08/08 11:23:01;;;;;;;2.17;1.70;;;30.50;80.90;;;;;;5041810;28;20297;-88
2022/08/08 11:25:32;;;;;;;2.35;1.83;;;30.50;79.80;;;;;;5016110;28;20276;-88
2022/08/08 11:28:03;;;;;;;2.05;1.60;;;30.60;81.30;;;;;;5016336;28;20202;-89
2022/08/08 11:30:31;;;;;;;2.00;1.80;;;30.90;80.90;;;;;;5016353;28;20175;-88
2022/08/08 11:33:00;;;;;;;4.65;1.80;;;31.10;78.40;;;;;;5032696;28;20182;-89
2022/08/08 11:35:27;;;;;;;1.52;1.42;;;31.10;79.30;;;;;;5016119;28;20202;-88
2022/08/08 11:37:53;;;;;;;2.85;1.50;;;31.00;77.30;;;;;;5016604;28;20179;-88
2022/08/08 11:40:19;;;;;;;2.00;1.60;;;31.10;78.40;;;;;;5015985;28;20183;-88
2022/08/08 11:42:46;;;;;;;2.00;1.80;;;30.50;78.60;;;;;;5016182;28;20199;-88
2022/08/08 11:45:12;;;;;;;3.33;2.05;;;30.60;77.70;;;;;;5016295;28;20183;-88
2022/08/08 11:47:39;;;;;;;1.50;1.40;;;30.60;77.20;;;;;;5017360;28;20186;-88
2022/08/08 11:50:10;;;;;;;3.22;1.45;;;30.70;77.30;;;;;;5032739;28;20236;-89
2022/08/08 11:52:37;;;;;;;2.10;2.00;;;30.80;78.10;;;;;;5015848;28;20297;-88
2022/08/08 11:55:26;;;;;;;3.20;1.80;;;30.70;80.00;;;;;;5049375;28;20215;-88
2022/08/08 11:58:07;;;;;;;2.92;1.73;;;30.90;78.40;;;;;;5048924;28;20225;-89
2022/08/08 12:00:41;;;;;;;1.85;1.70;;;30.50;77.90;;;;;;5051924;28;20177;-76
2022/08/08 12:03:21;;;;;;;2.72;1.48;;;30.70;75.80;;;;;;5036408;28;20181;-89
2022/08/08 12:05:48;;;;;;;5.60;1.50;;;30.70;76.10;;;;;;5034278;28;20175;-89
2022/08/08 12:08:15;;;;;;;2.10;1.48;;;30.50;75.70;;;;;;5035989;28;20182;-89
2022/08/08 12:11:05;;;;;;;2.25;1.50;;;30.60;77.00;;;;;;5035310;28;20186;-89
2022/08/08 12:13:32;;;;;;;2.88;1.60;;;30.90;74.50;;;;;;5036484;28;20190;-89
2022/08/08 12:16:12;;;;;;;1.70;1.60;;;31.00;74.50;;;;;;5046971;28;20209;-88
2022/08/08 12:18:51;;;;;;;1.60;1.50;;;31.30;73.70;;;;;;5020186;28;20189;-93
2022/08/08 12:21:27;;;;;;;1.50;1.30;;;31.40;75.10;;;;;;5031096;28;20257;-89
2022/08/08 12:24:13;;;;;;;3.97;1.60;;;31.40;73.70;;;;;;5031275;28;20198;-88
2022/08/08 12:26:55;;;;;;;3.72;1.55;;;31.50;73.80;;;;;;5015341;28;20163;-89
2022/08/08 12:29:24;;;;;;;4.45;1.65;;;31.70;72.90;;;;;;5032508;28;20163;-89
2022/08/08 12:32:11;;;;;;;3.20;1.27;;;32.00;73.00;;;;;;5031281;28;20225;-89
2022/08/08 12:34:48;;;;;;;3.20;1.58;;;32.10;69.40;;;;;;5016416;28;20205;-88
2022/08/08 12:37:26;;;;;;;1.60;1.48;;;32.00;70.20;;;;;;5045506;28;20194;-90
2022/08/08 12:39:52;;;;;;;3.58;1.65;;;32.10;73.60;;;;;;5016163;28;20171;-90
2022/08/08 12:42:22;;;;;;;2.15;1.70;;;32.30;72.80;;;;;;5035269;28;20196;-89
2022/08/08 12:44:48;;;;;;;1.60;1.50;;;32.40;72.30;;;;;;5031387;28;20240;-89
2022/08/08 12:47:25;;;;;;;5.40;1.50;;;32.50;71.70;;;;;;5048438;28;20186;-89
2022/08/08 12:49:56;;;;;;;2.05;1.60;;;32.40;69.90;;;;;;5038818;28;20209;-89
2022/08/08 12:52:26;;;;;;;1.30;1.30;;;32.30;71.20;;;;;;5022460;28;20241;-89
2022/08/08 12:55:05;;;;;;;3.40;1.50;;;32.30;70.50;;;;;;5034809;28;20259;-89
2022/08/08 12:57:39;;;;;;;3.40;1.40;;;32.20;70.40;;;;;;5038674;28;20178;-88
2022/08/08 13:00:08;;;;;;;1.52;1.40;;;32.30;70.00;;;;;;5031078;28;20171;-89
2022/08/08 13:03:03;;;;;;;2.08;1.42;;;32.50;69.20;;;;;;5031475;28;20199;-89
2022/08/08 13:05:36;;;;;;;1.95;1.50;;;32.50;68.70;;;;;;5045536;28;20748;-89
2022/08/08 13:08:23;;;;;;;1.95;1.50;;;32.70;66.10;;;;;;5034197;28;20186;-89
2022/08/08 13:10:55;;;;;;;2.83;1.58;;;32.80;67.60;;;;;;5024104;28;20198;-90
2022/08/08 13:13:34;;;;;;;3.15;2.00;;;32.80;66.40;;;;;;5039386;28;20206;-89
2022/08/08 13:16:28;;;;;;;1.67;1.40;;;32.80;68.90;;;;;;5031045;28;20205;-92
2022/08/08 13:19:02;;;;;;;1.70;1.60;;;32.60;69.20;;;;;;5045847;28;20170;-89
2022/08/08 13:21:30;;;;;;;1.60;1.50;;;32.80;68.00;;;;;;5035813;28;20206;-89
2022/08/08 13:23:59;;;;;;;1.55;1.42;;;33.00;69.00;;;;;;5048754;28;20190;-89
2022/08/08 13:26:31;;;;;;;1.75;1.65;;;33.20;69.50;;;;;;5030465;28;20171;-89
2022/08/08 13:28:58;;;;;;;2.05;1.63;;;33.30;68.50;;;;;;5041391;28;20194;-89
2022/08/08 13:31:24;;;;;;;2.25;1.77;;;33.10;67.40;;;;;;5044829;28;20197;-89
2022/08/08 13:33:50;;;;;;;1.60;1.50;;;33.10;69.00;;;;;;5017605;28;20182;-87
2022/08/08 13:36:31;;;;;;;1.98;1.52;;;33.20;68.10;;;;;;5017421;28;20264;-87
2022/08/08 13:39:00;;;;;;;2.65;1.83;;;33.10;68.10;;;;;;5035023;28;20253;-87
2022/08/08 13:41:38;;;;;;;2.38;1.60;;;32.80;67.80;;;;;;5050815;28;20204;-87
2022/08/08 13:44:07;;;;;;;1.70;1.60;;;32.80;68.30;;;;;;5051311;28;20232;-87
2022/08/08 13:46:33;;;;;;;3.33;1.67;;;32.30;68.70;;;;;;5051589;28;20209;-87
2022/08/08 13:48:59;;;;;;;2.45;1.58;;;32.60;68.60;;;;;;5035076;28;20205;-87
2022/08/08 13:51:25;;;;;;;2.00;1.90;;;32.80;68.70;;;;;;5038046;28;20224;-87
2022/08/08 13:53:53;;;;;;;2.85;1.83;;;32.80;69.40;;;;;;5038051;28;20181;-87
2022/08/08 13:56:37;;;;;;;2.15;1.80;;;33.00;69.30;;;;;;5018854;28;20179;-88
2022/08/08 13:59:06;;;;;;;1.88;1.60;;;33.30;69.60;;;;;;5039210;28;20210;-88